createdAt,value
2023-01-23T00:00:22.616Z,20.40
2023-01-23T00:05:19.585Z,14.02
2023-01-23T00:10:17.870Z,15.15
2023-01-23T00:15:15.749Z,15.00
2023-01-23T00:20:13.246Z,16.73
2023-01-23T00:25:11.272Z,16.77
2023-01-23T00:30:10.444Z,12.05
2023-01-23T00:35:07.820Z,16.70
2023-01-23T00:40:05.764Z,16.30
2023-01-23T00:45:03.804Z,18.08
2023-01-23T00:50:01.248Z,14.63
2023-01-23T00:55:00.130Z,15.80
2023-01-23T00:59:57.070Z,14.07
2023-01-23T01:04:53.838Z,16.83
2023-01-23T01:09:52.875Z,18.00
2023-01-23T01:14:49.725Z,14.35
2023-01-23T01:19:46.571Z,14.95
2023-01-23T01:24:43.395Z,17.42
2023-01-23T01:29:40.892Z,22.35
2023-01-23T01:34:37.644Z,19.60
2023-01-23T01:39:34.429Z,20.10
2023-01-23T01:44:56.257Z,19.20
2023-01-23T01:49:55.569Z,20.60
2023-01-23T01:54:56.195Z,20.65
2023-01-23T01:59:59.907Z,19.60
2023-01-23T02:05:01.362Z,22.45
2023-01-23T02:09:58.316Z,21.73
2023-01-23T02:14:55.261Z,22.77
2023-01-23T02:20:00.257Z,24.02
2023-01-23T02:25:06.310Z,20.37
2023-01-23T02:30:07.295Z,18.58
2023-01-23T02:35:10.475Z,21.40
2023-01-23T02:40:09.115Z,24.83
2023-01-23T02:45:08.815Z,20.80
2023-01-23T02:50:06.437Z,21.52
2023-01-23T02:55:03.631Z,25.75
2023-01-23T03:00:15.673Z,16.00
2023-01-23T03:05:13.207Z,16.17
2023-01-23T03:10:12.608Z,22.98
2023-01-23T03:15:12.957Z,17.77
2023-01-23T03:20:11.149Z,20.58
2023-01-23T03:25:09.655Z,18.83
2023-01-23T03:30:13.574Z,22.98
2023-01-23T03:35:13.422Z,22.38
2023-01-23T03:40:34.336Z,23.38
2023-01-23T03:45:31.807Z,23.17
2023-01-23T03:50:28.739Z,25.10
2023-01-23T03:55:27.959Z,24.60
2023-01-23T04:00:24.811Z,20.92
2023-01-23T04:05:33.083Z,21.58
2023-01-23T04:10:32.195Z,19.40
2023-01-23T04:15:36.480Z,22.00
2023-01-23T04:20:36.251Z,21.13
2023-01-23T04:25:34.001Z,17.35
2023-01-23T04:30:30.998Z,19.75
2023-01-23T04:35:34.316Z,23.08
2023-01-23T04:40:33.209Z,18.63
2023-01-23T04:45:30.416Z,17.48
2023-01-23T04:50:42.525Z,20.92
2023-01-23T04:55:40.155Z,19.88
2023-01-23T05:00:40.242Z,19.98
2023-01-23T05:05:37.879Z,21.33
2023-01-23T05:10:35.151Z,18.40
2023-01-23T05:15:37.205Z,20.70
2023-01-23T05:20:35.209Z,22.83
2023-01-23T05:25:32.956Z,22.25
2023-01-23T05:30:30.727Z,21.35
2023-01-23T05:35:44.831Z,21.25
2023-01-23T05:40:42.622Z,18.00
2023-01-23T05:46:05.587Z,20.80
2023-01-23T05:51:12.860Z,20.05
2023-01-23T05:56:10.883Z,19.45
2023-01-23T06:01:29.763Z,21.90
2023-01-23T06:06:59.761Z,16.60
2023-01-23T06:11:57.319Z,20.58
2023-01-23T06:16:54.171Z,23.40
2023-01-23T06:21:51.756Z,20.83
2023-01-23T06:26:52.067Z,19.23
2023-01-23T06:31:49.278Z,19.17
2023-01-23T06:36:47.897Z,18.75
2023-01-23T06:41:45.331Z,20.15
2023-01-23T06:46:49.060Z,15.90
2023-01-23T06:51:47.039Z,13.93
2023-01-23T06:56:44.254Z,15.10
2023-01-23T07:01:42.744Z,15.65
2023-01-23T07:06:50.183Z,13.85
2023-01-23T07:11:48.835Z,15.43
2023-01-23T07:16:46.031Z,15.02
2023-01-23T07:21:42.821Z,17.27
2023-01-23T07:26:40.264Z,11.55
2023-01-23T07:31:37.435Z,14.23
2023-01-23T07:36:42.262Z,11.73
2023-01-23T07:41:46.391Z,11.63
2023-01-23T07:46:44.978Z,15.38
2023-01-23T07:51:41.906Z,13.35
2023-01-23T07:56:38.702Z,14.93
2023-01-23T08:01:35.537Z,13.10
2023-01-23T08:06:33.554Z,14.05
2023-01-23T08:11:33.440Z,18.50
2023-01-23T08:16:31.199Z,16.95
2023-01-23T08:21:28.019Z,11.95
2023-01-23T08:26:25.587Z,11.90
2023-01-23T08:31:22.525Z,12.88
2023-01-23T08:36:19.820Z,15.07
2023-01-23T08:41:17.142Z,12.32
2023-01-23T08:46:14.666Z,14.18
2023-01-23T08:51:13.856Z,12.32
2023-01-23T08:56:16.660Z,12.75
2023-01-23T09:01:16.502Z,15.20
2023-01-23T09:06:14.752Z,17.33
2023-01-23T09:11:12.877Z,15.68
2023-01-23T09:16:09.936Z,14.35
2023-01-23T09:21:09.672Z,15.13
2023-01-23T09:26:08.714Z,16.25
2023-01-23T09:31:08.771Z,14.40
2023-01-23T09:36:11.909Z,14.75
2023-01-23T09:41:14.199Z,14.00
2023-01-23T09:46:19.434Z,9.77
2023-01-23T09:51:24.737Z,12.95
2023-01-23T09:56:29.822Z,10.82
2023-01-23T10:01:29.973Z,9.40
2023-01-23T10:06:29.659Z,12.00
2023-01-23T10:11:33.603Z,15.02
2023-01-23T10:16:53.505Z,14.95
2023-01-23T10:21:59.596Z,13.80
2023-01-23T10:27:03.582Z,15.25
2023-01-23T10:32:04.028Z,17.40
2023-01-23T10:37:13.247Z,14.13
2023-01-23T10:42:12.409Z,14.35
2023-01-23T10:47:19.329Z,16.30
2023-01-23T10:52:33.618Z,16.45
2023-01-23T10:57:39.056Z,14.25
2023-01-23T11:02:37.646Z,15.18
2023-01-23T11:07:39.786Z,19.83
2023-01-23T11:12:50.141Z,18.10
2023-01-23T11:17:47.437Z,16.05
2023-01-23T11:22:44.961Z,18.17
2023-01-23T11:27:56.849Z,21.65
2023-01-23T11:32:58.507Z,18.60
2023-01-23T11:38:00.765Z,19.00
2023-01-23T11:43:00.289Z,17.63
2023-01-23T11:48:16.571Z,15.60
2023-01-23T11:53:30.633Z,16.33
2023-01-23T11:58:51.643Z,19.70
2023-01-23T12:04:22.968Z,14.85
2023-01-23T12:09:22.140Z,21.08
2023-01-23T12:14:25.914Z,19.45
2023-01-23T12:19:41.116Z,20.08
2023-01-23T12:24:53.223Z,18.50
2023-01-23T12:30:09.167Z,20.08
2023-01-23T12:40:21.876Z,19.45
2023-01-23T12:45:22.844Z,29.17
2023-01-23T12:50:24.207Z,19.25
2023-01-23T12:55:24.281Z,19.02
2023-01-23T13:00:35.826Z,19.23
2023-01-23T13:05:40.127Z,20.05
2023-01-23T13:11:13.958Z,22.15
2023-01-23T13:16:12.880Z,13.98
2023-01-23T13:21:30.228Z,22.83
2023-01-23T13:26:30.852Z,16.27
2023-01-23T13:31:35.665Z,17.50
2023-01-23T13:36:37.136Z,18.75
2023-01-23T13:41:36.377Z,19.92
2023-01-23T14:23:48.548Z,15.57
2023-01-23T14:28:56.025Z,19.52
2023-01-23T14:34:09.211Z,15.05
2023-01-23T14:39:06.813Z,16.63
2023-01-23T14:44:04.689Z,18.10
2023-01-23T14:49:02.739Z,18.10
2023-01-23T14:54:01.015Z,14.57
2023-01-23T14:59:01.161Z,17.83
2023-01-23T15:04:02.043Z,17.08
2023-01-23T15:09:07.995Z,20.02
2023-01-23T15:14:05.309Z,17.95
2023-01-23T15:19:06.045Z,17.60
2023-01-23T15:24:28.728Z,20.02
2023-01-23T15:29:26.454Z,17.95
2023-01-23T15:34:27.101Z,21.33
2023-01-23T15:39:27.467Z,30.77
2023-01-23T15:44:27.977Z,20.25
2023-01-23T15:49:26.716Z,23.00
2023-01-23T15:54:28.186Z,19.13
2023-01-23T15:59:25.051Z,17.65
2023-01-23T16:04:21.972Z,20.33
2023-01-23T16:09:25.941Z,17.95
2023-01-23T16:14:22.783Z,19.15
2023-01-23T16:19:19.675Z,17.50
2023-01-23T16:24:18.953Z,17.13
2023-01-23T16:29:37.343Z,25.08
2023-01-23T16:34:34.354Z,17.75
2023-01-23T16:39:33.322Z,21.15
2023-01-23T16:44:30.333Z,23.02
2023-01-23T16:49:28.007Z,16.83
2023-01-23T16:54:25.919Z,19.38
2023-01-23T16:59:30.421Z,18.75
2023-01-23T17:04:28.140Z,20.00
2023-01-23T17:09:24.963Z,18.42
2023-01-23T17:14:25.097Z,21.45
2023-01-23T17:19:29.485Z,17.92
2023-01-23T17:24:26.283Z,18.13
2023-01-23T17:29:24.104Z,22.70
2023-01-23T17:34:24.126Z,21.80
2023-01-23T17:39:21.706Z,17.58
2023-01-23T17:44:18.717Z,19.02
2023-01-23T17:49:27.873Z,20.95
2023-01-23T17:54:26.075Z,22.30
2023-01-23T17:59:22.820Z,22.08
2023-01-23T18:04:21.638Z,20.02
2023-01-23T18:09:18.695Z,22.25
2023-01-23T18:14:35.643Z,20.70
2023-01-23T18:19:33.164Z,20.48
2023-01-23T18:24:32.464Z,20.70
2023-01-23T18:29:43.911Z,23.92
2023-01-23T18:34:47.736Z,20.27
2023-01-23T18:40:05.188Z,18.38
2023-01-23T18:45:11.295Z,21.30
2023-01-23T18:55:14.975Z,18.25
2023-01-23T19:00:21.039Z,21.45
2023-01-23T19:05:27.876Z,18.98
2023-01-23T19:10:29.165Z,20.67
2023-01-23T19:15:33.490Z,24.42
2023-01-23T19:20:42.449Z,22.17
2023-01-23T19:25:39.717Z,24.27
2023-01-23T19:30:39.784Z,17.90
2023-01-23T19:35:40.309Z,22.38
2023-01-23T19:40:42.450Z,21.15
2023-01-23T19:45:40.470Z,20.55
2023-01-23T19:50:37.629Z,14.00
2023-01-23T19:55:38.428Z,18.42
2023-01-23T20:00:36.755Z,15.68
2023-01-23T20:05:34.479Z,14.20
2023-01-23T20:10:31.958Z,11.43
2023-01-23T20:15:29.950Z,14.43
2023-01-23T20:20:27.925Z,11.35
2023-01-23T20:25:26.369Z,9.82
2023-01-23T20:30:24.375Z,8.57
2023-01-23T20:35:21.425Z,10.07
2023-01-23T20:40:18.559Z,11.23
2023-01-23T20:45:16.191Z,10.38
2023-01-23T20:50:13.013Z,10.98
2023-01-23T20:55:11.305Z,9.43
2023-01-23T21:00:09.467Z,8.07
2023-01-23T21:05:07.496Z,8.98
2023-01-23T21:10:05.114Z,8.80
2023-01-23T21:15:01.901Z,10.02
2023-01-23T21:19:58.758Z,10.15
2023-01-23T21:24:56.219Z,9.98
2023-01-23T21:29:52.964Z,9.75
2023-01-23T21:34:50.888Z,8.98
2023-01-23T21:39:47.623Z,9.73
2023-01-23T21:44:45.106Z,6.18
2023-01-23T21:49:41.921Z,5.18
2023-01-23T21:54:41.191Z,5.80
2023-01-23T21:59:37.935Z,4.43
2023-01-23T22:04:35.617Z,6.20
2023-01-23T22:09:32.463Z,5.00
2023-01-23T22:14:29.923Z,4.88
2023-01-23T22:19:26.680Z,4.38
2023-01-23T22:24:24.356Z,6.40
2023-01-23T22:29:22.221Z,6.40
2023-01-23T22:34:19.017Z,5.75
2023-01-23T22:39:15.789Z,5.05
2023-01-23T22:44:13.837Z,5.22
2023-01-23T22:49:10.702Z,4.03
2023-01-23T22:54:07.501Z,4.72
2023-01-23T22:59:04.335Z,4.82
2023-01-23T23:04:02.073Z,3.88
2023-01-23T23:08:58.883Z,5.88
2023-01-23T23:13:56.549Z,4.15
2023-01-23T23:18:55.183Z,4.28
2023-01-23T23:23:56.598Z,5.70
2023-01-23T23:28:53.799Z,6.75
2023-01-23T23:33:50.631Z,5.55
2023-01-23T23:38:47.462Z,5.25
2023-01-23T23:43:45.145Z,5.60
2023-01-23T23:48:43.334Z,5.57
2023-01-23T23:53:40.231Z,4.90
2023-01-23T23:58:37.429Z,5.75
